Pagina principale
METAR-TAF:

METAR-TAF

Aeroporti :

Aeroporto di Roma-Ciampino

Roma Ciampino, Italia

latitudine: 41-47N, longitudine: 012-35E, altezza: 129 m

Osservazione

Il bollettino è stato emesso 29 minuti fa, alle 18:50 UTC
Vento 5 kt da nord
Temperature 23°C
Umidità 61%
Pressione 1015 hPa
Visibilità 10 km o più
Poco nuvoloso ad un'altezza di 4500 ft

METAR: LIRA 231850Z 35005KT 9999 FEW045 23/15 Q1015

Ora: 21:19 (19:19 UTC)

Previsione

Il bollettino è stato emesso 2 ore e 19 minuti fa, alle 17:00 UTC
Previsione valida dal 23 alle 18 UTC al 24 alle 18 UTC
Visibilità 10 km o più
Nuvoloso ad un'altezza di 3000 ft
Evoluzione graduale
dal 23 alle 22 UTC al 23 alle 24 UTC
Vento 10 kt da nord/nord-est

TAF: LIRA 231700Z 2318/2418 2907KT 9999 BKN030 BECMG 2322/2324 02010KT

Osservazioni e previsioni meteorologiche di più di 4000 aeroporti (messaggi METAR e TAF).

Le stazioni disponibili sono rappresentate dai dischi gialli e rossi sulla carta.

Puntare il mouse per vedere il nome della stazione.

Clicca sopra per visualizzare le osservazioni e previsioni meteorologiche.

Per cambiare la mappa : fare clic sui pulsanti verdi con una croce nera per ingrandire, il pulsante verde con un trattino per diminuire, o sulla freccia verde per le mappe adiacenti.


METAR-TAF: